sensor_id;sensor_type;location;lat;lon;timestamp;P1;durP1;ratioP1;P2;durP2;ratioP2
55575;SDS011;41437;45.478;9.116;2023-11-21T09:53:49;61.65;;;38.25;;
55575;SDS011;41437;45.478;9.116;2023-11-21T10:54:45;71.43;;;38.20;;
55575;SDS011;41437;45.478;9.116;2023-11-21T10:57:47;73.43;;;38.38;;
55575;SDS011;41437;45.478;9.116;2023-11-21T11:00:51;223.23;;;44.53;;
55575;SDS011;41437;45.478;9.116;2023-11-21T11:03:53;140.27;;;40.70;;
55575;SDS011;41437;45.478;9.116;2023-11-21T11:06:56;72.53;;;37.95;;
55575;SDS011;41437;45.478;9.116;2023-11-21T11:09:59;90.63;;;37.67;;
55575;SDS011;41437;45.478;9.116;2023-11-21T11:13:01;69.47;;;37.35;;
55575;SDS011;41437;45.478;9.116;2023-11-21T11:16:05;83.53;;;36.42;;
55575;SDS011;41437;45.478;9.116;2023-11-21T11:19:10;62.25;;;37.22;;
55575;SDS011;41437;45.478;9.116;2023-11-21T11:22:16;81.03;;;37.15;;
55575;SDS011;41437;45.478;9.116;2023-11-21T11:25:38;72.88;;;37.22;;
55575;SDS011;41437;45.478;9.116;2023-11-21T11:28:54;53.40;;;37.83;;
55575;SDS011;41437;45.478;9.116;2023-11-21T11:32:10;61.03;;;37.90;;
55575;SDS011;41437;45.478;9.116;2023-11-21T11:35:24;59.10;;;36.30;;
55575;SDS011;41437;45.478;9.116;2023-11-21T11:38:32;51.00;;;36.35;;
55575;SDS011;41437;45.478;9.116;2023-11-21T11:41:35;56.20;;;36.97;;
55575;SDS011;41437;45.478;9.116;2023-11-21T11:44:48;69.57;;;41.42;;
55575;SDS011;41437;45.478;9.116;2023-11-21T11:47:56;56.60;;;37.42;;
55575;SDS011;41437;45.478;9.116;2023-11-21T11:51:01;51.58;;;35.10;;
55575;SDS011;41437;45.478;9.116;2023-11-21T11:54:05;53.83;;;35.65;;
55575;SDS011;41437;45.478;9.116;2023-11-21T11:57:07;54.22;;;37.00;;
55575;SDS011;41437;45.478;9.116;2023-11-21T12:00:10;57.13;;;35.92;;
55575;SDS011;41437;45.478;9.116;2023-11-21T12:03:17;61.63;;;33.58;;
55575;SDS011;41437;45.478;9.116;2023-11-21T12:06:19;47.30;;;33.92;;
55575;SDS011;41437;45.478;9.116;2023-11-21T12:09:34;48.80;;;35.22;;
55575;SDS011;41437;45.478;9.116;2023-11-21T14:58:32;41.78;;;26.17;;
55575;SDS011;41437;45.478;9.116;2023-11-21T15:01:32;42.03;;;25.98;;
55575;SDS011;41437;45.478;9.116;2023-11-21T15:04:48;34.28;;;23.83;;
55575;SDS011;41437;45.478;9.116;2023-11-21T15:07:54;36.92;;;23.08;;
55575;SDS011;41437;45.478;9.116;2023-11-21T15:10:57;38.47;;;23.98;;
55575;SDS011;41437;45.478;9.116;2023-11-21T15:13:59;34.70;;;23.75;;
55575;SDS011;41437;45.478;9.116;2023-11-21T15:17:05;31.00;;;20.77;;
55575;SDS011;41437;45.478;9.116;2023-11-21T15:20:07;35.45;;;21.00;;
55575;SDS011;41437;45.478;9.116;2023-11-21T15:23:11;35.78;;;22.05;;
55575;SDS011;41437;45.478;9.116;2023-11-21T15:26:13;30.98;;;19.98;;
55575;SDS011;41437;45.478;9.116;2023-11-21T15:29:15;29.52;;;19.80;;
55575;SDS011;41437;45.478;9.116;2023-11-21T15:32:18;31.30;;;21.40;;
55575;SDS011;41437;45.478;9.116;2023-11-21T15:35:20;36.72;;;22.20;;
55575;SDS011;41437;45.478;9.116;2023-11-21T15:38:23;37.28;;;21.88;;
55575;SDS011;41437;45.478;9.116;2023-11-21T15:41:25;37.70;;;22.08;;
55575;SDS011;41437;45.478;9.116;2023-11-21T15:44:27;32.55;;;20.58;;
55575;SDS011;41437;45.478;9.116;2023-11-21T15:47:30;31.25;;;19.45;;
55575;SDS011;41437;45.478;9.116;2023-11-21T15:50:31;31.40;;;19.88;;
55575;SDS011;41437;45.478;9.116;2023-11-21T15:53:35;31.58;;;20.63;;
55575;SDS011;41437;45.478;9.116;2023-11-21T15:56:38;32.63;;;19.73;;
55575;SDS011;41437;45.478;9.116;2023-11-21T15:59:41;30.35;;;20.25;;
55575;SDS011;41437;45.478;9.116;2023-11-21T16:02:43;29.35;;;18.85;;
55575;SDS011;41437;45.478;9.116;2023-11-21T16:05:45;32.58;;;18.83;;
55575;SDS011;41437;45.478;9.116;2023-11-21T16:08:48;33.05;;;19.77;;
55575;SDS011;41437;45.478;9.116;2023-11-21T16:11:49;30.35;;;18.73;;
55575;SDS011;41437;45.478;9.116;2023-11-21T16:14:56;30.23;;;18.35;;
55575;SDS011;41437;45.478;9.116;2023-11-21T16:17:58;29.70;;;18.55;;
55575;SDS011;41437;45.478;9.116;2023-11-21T16:20:59;31.00;;;17.48;;
55575;SDS011;41437;45.478;9.116;2023-11-21T16:24:05;26.65;;;17.40;;
55575;SDS011;41437;45.478;9.116;2023-11-21T16:27:07;26.17;;;17.15;;
55575;SDS011;41437;45.478;9.116;2023-11-21T16:30:10;31.00;;;19.17;;
55575;SDS011;41437;45.478;9.116;2023-11-21T16:33:12;30.00;;;19.70;;
55575;SDS011;41437;45.478;9.116;2023-11-21T16:36:14;33.28;;;21.48;;
55575;SDS011;41437;45.478;9.116;2023-11-21T16:39:17;33.35;;;20.77;;
55575;SDS011;41437;45.478;9.116;2023-11-21T16:42:21;33.67;;;20.80;;
55575;SDS011;41437;45.478;9.116;2023-11-21T16:45:23;33.75;;;21.23;;
55575;SDS011;41437;45.478;9.116;2023-11-21T16:48:24;32.40;;;20.45;;
55575;SDS011;41437;45.478;9.116;2023-11-21T16:51:26;34.03;;;21.73;;
55575;SDS011;41437;45.478;9.116;2023-11-21T16:54:29;34.50;;;20.95;;
55575;SDS011;41437;45.478;9.116;2023-11-21T16:57:30;32.30;;;21.43;;
55575;SDS011;41437;45.478;9.116;2023-11-21T17:00:32;34.10;;;21.90;;
55575;SDS011;41437;45.478;9.116;2023-11-21T17:46:08;35.40;;;21.20;;
55575;SDS011;41437;45.478;9.116;2023-11-21T17:49:11;32.47;;;20.63;;
55575;SDS011;41437;45.478;9.116;2023-11-21T17:52:13;32.72;;;22.23;;
55575;SDS011;41437;45.478;9.116;2023-11-21T17:55:16;30.90;;;21.05;;
55575;SDS011;41437;45.478;9.116;2023-11-21T17:58:18;32.55;;;21.38;;
55575;SDS011;41437;45.478;9.116;2023-11-21T18:01:20;34.70;;;21.17;;
